KPNE/PNE METAR and TAF weather

Enter ICAO airport designator
Station Type Date Time Source
KPNE METAR 2021/09/20 04:54 UTC NOAA

KPNE 200454Z AUTO 00000KT 10SM CLR 15/13 A3026 RMK AO2 SLP247 T01500128 402610150


Station Type Date Time Source
KPNE Decoded METAR 2021/09/20 04:54 UTC NOAA

N.E. PHILADELPHIA AIRPORT, PA, United States (KPNE) 40-05N 075-01W 28M
Sep 20, 2021 - 12:54 AM EDT / 2021.09.20 0454 UTC
Wind: Calm:0
Visibility: 10 mile(s):0
Sky conditions: clear
Temperature: 59.0 F (15.0 C)
Dew Point: 55.0 F (12.8 C)
Relative Humidity: 86%
Pressure (altimeter): 30.26 in. Hg (1024 hPa)
ob: KPNE 200454Z AUTO 00000KT 10SM CLR 15/13 A3026 RMK AO2 SLP247 T01500128 402610150
cycle: 5

Station Type Date Time Source
KPNE TAF 2021/09/19 18:24 UTC NOAA

TAF KPNE 191723Z 1918/2018 01010KT P6SM SKC
FM200000 08004KT P6SM SKC
FM201400 11007KT P6SM SKC

Example: see airport list